Time;durP1;ratioP1;P1;durP2;ratioP2;P2;SDS_P1;SDS_P2;PMS_P1;PMS_P2;Temp;Humidity;BMP_temperature;BMP_pressure;BME280_temperature;BME280_humidity;BME280_pressure;Samples;Min_cycle;Max_cycle;Signal;HPM_P1;HPM_P2
2021/04/08 00:01:11;;;;;;;10.48;5.87;;;;;;;-0.73;85.37;99312.49;1752216;82;21138;-77
2021/04/08 00:03:38;;;;;;;12.85;5.65;;;;;;;-0.75;85.36;99314.66;1752401;82;21135;-80
2021/04/08 00:06:07;;;;;;;13.43;5.22;;;;;;;-0.76;85.19;99317.69;1745950;82;21268;-78
2021/04/08 00:08:36;;;;;;;11.33;5.90;;;;;;;-0.77;85.39;99323.70;1740273;82;21461;-79
2021/04/08 00:11:04;;;;;;;15.38;5.85;;;;;;;-0.78;85.38;99325.88;1739666;82;21649;-81
2021/04/08 00:13:34;;;;;;;10.10;5.55;;;;;;;-0.77;85.08;99323.70;1764397;80;21249;-81
2021/04/08 00:16:05;;;;;;;10.68;5.35;;;;;;;-0.76;84.98;99330.62;1779572;80;21215;-81
2021/04/08 00:18:35;;;;;;;10.95;6.03;;;;;;;-0.76;84.74;99325.45;1779732;80;21214;-80
2021/04/08 00:21:03;;;;;;;9.30;5.58;;;;;;;-0.73;84.49;99328.01;1779299;80;21595;-80
2021/04/08 00:23:31;;;;;;;12.33;6.03;;;;;;;-0.73;84.39;99331.88;1779315;80;21162;-78
2021/04/08 00:25:59;;;;;;;9.73;5.53;;;;;;;-0.73;84.30;99333.18;1750927;80;21191;-79
2021/04/08 00:28:27;;;;;;;14.23;6.37;;;;;;;-0.73;84.05;99339.64;1730800;81;21139;-78
2021/04/08 00:30:55;;;;;;;9.30;5.65;;;;;;;-0.72;84.15;99341.34;1748459;82;21423;-78
2021/04/08 00:33:23;;;;;;;11.38;6.25;;;;;;;-0.72;84.03;99347.81;1730502;82;21178;-78
2021/04/08 00:35:51;;;;;;;11.15;6.12;;;;;;;-0.73;84.13;99346.11;1748649;82;21147;-80
2021/04/08 00:38:19;;;;;;;11.73;5.92;;;;;;;-0.75;84.26;99348.27;1730460;82;21107;-79
2021/04/08 00:40:47;;;;;;;12.53;6.12;;;;;;;-0.79;84.09;99350.00;1748381;82;21590;-80
2021/04/08 00:43:17;;;;;;;13.88;6.33;;;;;;;-0.80;84.31;99349.58;1730685;82;22363;-80
2021/04/08 00:45:45;;;;;;;11.22;5.95;;;;;;;-0.81;84.39;99358.63;1748590;82;21191;-79
2021/04/08 00:48:13;;;;;;;10.98;5.17;;;;;;;-0.83;84.59;99359.91;1730328;82;21206;-81
2021/04/08 00:50:41;;;;;;;11.43;6.60;;;;;;;-0.86;84.63;99363.81;1748510;82;21178;-79
2021/04/08 00:53:18;;;;;;;13.13;7.15;;;;;;;-0.87;84.64;99362.11;1730551;82;21310;-79
2021/04/08 00:55:49;;;;;;;11.12;6.08;;;;;;;-0.88;85.02;99364.25;1752108;80;22379;-79
2021/04/08 00:58:17;;;;;;;11.73;5.62;;;;;;;-0.88;84.94;99366.83;1781769;80;21163;-80
2021/04/08 01:00:45;;;;;;;9.73;5.50;;;;;;;-0.87;85.14;99372.45;1782663;80;21186;-80
2021/04/08 01:03:14;;;;;;;11.65;6.20;;;;;;;-0.88;84.87;99378.47;1782557;80;21137;-80
2021/04/08 01:05:42;;;;;;;10.68;5.70;;;;;;;-0.88;84.89;99379.75;1777311;80;21125;-81
2021/04/08 01:08:12;;;;;;;12.55;6.30;;;;;;;-0.89;84.78;99378.05;1773268;80;21366;-79
2021/04/08 01:10:43;;;;;;;13.32;6.65;;;;;;;-0.92;84.55;99378.92;1773456;80;21236;-78
2021/04/08 01:13:17;;;;;;;11.10;6.33;;;;;;;-0.95;84.69;99381.49;1777961;80;21166;-79
2021/04/08 01:15:45;;;;;;;13.28;6.28;;;;;;;-0.95;84.62;99385.81;1781965;80;21741;-78
2021/04/08 01:18:37;;;;;;;14.65;7.33;;;;;;;-0.98;84.81;99388.41;1781632;80;21203;-80
2021/04/08 01:21:19;;;;;;;12.77;6.53;;;;;;;-0.99;84.58;99384.97;1782182;80;21214;-79
2021/04/08 01:24:12;;;;;;;12.30;6.60;;;;;;;-1.00;85.05;99397.89;1781728;80;21182;-78
2021/04/08 01:27:06;;;;;;;13.13;7.08;;;;;;;-1.02;84.70;99400.91;1782091;80;21194;-76
2021/04/08 01:30:00;;;;;;;11.22;6.42;;;;;;;-1.03;84.50;99401.78;1781236;80;21848;-77
2021/04/08 01:32:28;;;;;;;9.55;6.17;;;;;;;-1.04;84.73;99405.21;1781784;80;21146;-78
2021/04/08 01:34:59;;;;;;;13.75;6.80;;;;;;;-1.06;84.93;99411.26;1753915;80;21698;-77
2021/04/08 01:37:32;;;;;;;12.28;6.62;;;;;;;-1.09;84.67;99411.68;1781787;80;21218;-78
2021/04/08 01:40:01;;;;;;;14.60;7.47;;;;;;;-1.11;84.95;99414.25;1781712;80;21229;-79
2021/04/08 01:42:28;;;;;;;11.05;5.87;;;;;;;-1.13;84.90;99416.01;1753946;80;21608;-78
2021/04/08 01:44:57;;;;;;;13.15;7.45;;;;;;;-1.15;85.00;99416.44;1753949;80;21635;-78
2021/04/08 01:47:26;;;;;;;12.00;6.83;;;;;;;-1.17;85.15;99420.75;1781896;80;22385;-79
2021/04/08 01:49:54;;;;;;;11.25;6.95;;;;;;;-1.18;84.93;99417.71;1781813;80;21218;-77
2021/04/08 01:52:22;;;;;;;15.90;6.85;;;;;;;-1.18;85.03;99430.63;1753780;80;21151;-77
2021/04/08 01:54:53;;;;;;;13.28;7.17;;;;;;;-1.19;84.80;99434.53;1781866;80;21119;-77
2021/04/08 01:57:21;;;;;;;13.28;7.42;;;;;;;-1.20;84.73;99434.94;1782238;80;21207;-78
2021/04/08 01:59:49;;;;;;;14.05;7.30;;;;;;;-1.21;84.68;99437.54;1781927;80;21375;-78
2021/04/08 02:02:18;;;;;;;12.30;7.33;;;;;;;-1.23;84.74;99449.59;1781746;80;21214;-78
2021/04/08 02:04:46;;;;;;;13.98;7.42;;;;;;;-1.24;84.79;99455.20;1782436;80;21669;-80
2021/04/08 02:07:15;;;;;;;13.70;6.67;;;;;;;-1.25;84.75;99446.15;1783621;80;21186;-79
2021/04/08 02:09:43;;;;;;;14.18;6.95;;;;;;;-1.27;84.84;99448.72;1783623;80;21138;-80
2021/04/08 02:12:11;;;;;;;13.00;6.83;;;;;;;-1.25;84.79;99459.92;1755150;80;21382;-80
2021/04/08 02:14:41;;;;;;;16.37;6.90;;;;;;;-1.25;84.97;99461.21;1730807;80;21135;-80
2021/04/08 02:17:10;;;;;;;13.58;8.30;;;;;;;-1.25;84.95;99468.11;1783738;80;21177;-81
2021/04/08 02:19:37;;;;;;;13.20;7.42;;;;;;;-1.25;85.02;99476.71;1783976;80;21135;-79
2021/04/08 02:22:05;;;;;;;14.50;7.62;;;;;;;-1.24;85.06;99482.73;1783759;80;21140;-80
2021/04/08 02:24:34;;;;;;;13.43;7.45;;;;;;;-1.26;84.94;99480.17;1755630;80;21183;-79
2021/04/08 02:27:02;;;;;;;15.95;8.30;;;;;;;-1.31;84.79;99481.46;1783804;80;21677;-79
2021/04/08 02:29:31;;;;;;;15.20;8.23;;;;;;;-1.29;84.48;99491.77;1783795;80;21551;-80
2021/04/08 02:31:59;;;;;;;14.53;8.03;;;;;;;-1.30;84.56;99495.23;1784773;80;21127;-80
2021/04/08 02:34:27;;;;;;;14.55;7.83;;;;;;;-1.31;84.43;99496.11;1783401;80;21720;-76
2021/04/08 02:36:56;;;;;;;14.15;7.70;;;;;;;-1.50;84.60;99470.23;1781639;80;21818;-75
2021/04/08 02:39:24;;;;;;;15.05;7.97;;;;;;;-1.33;84.48;99499.11;1781880;80;21200;-76
2021/04/08 02:41:52;;;;;;;11.93;7.42;;;;;;;-1.33;84.40;99507.72;1781854;80;21626;-77
2021/04/08 02:44:21;;;;;;;15.30;8.10;;;;;;;-1.34;84.30;99511.58;1782109;80;21136;-77
2021/04/08 02:46:50;;;;;;;15.85;8.08;;;;;;;-1.34;84.36;99509.85;1782011;80;21219;-76
2021/04/08 02:49:18;;;;;;;13.43;7.78;;;;;;;-1.33;84.32;99519.34;1782104;80;21342;-76
2021/04/08 02:51:52;;;;;;;14.83;7.53;;;;;;;-1.36;84.48;99513.30;1782008;80;21203;-77
2021/04/08 02:54:52;;;;;;;16.35;7.80;;;;;;;-1.36;84.41;99514.59;1782120;80;21207;-76
2021/04/08 02:57:35;;;;;;;17.25;8.58;;;;;;;-1.39;84.28;99524.48;1782571;80;21202;-78
2021/04/08 03:00:09;;;;;;;17.82;9.08;;;;;;;-1.38;84.51;99526.63;1784729;80;21203;-75
2021/04/08 03:02:39;;;;;;;14.30;7.47;;;;;;;-1.40;84.09;99523.19;1783249;80;21204;-78
2021/04/08 03:05:08;;;;;;;14.53;8.50;;;;;;;-1.41;84.00;99528.78;1767617;80;21712;-78
2021/04/08 03:07:40;;;;;;;15.40;8.35;;;;;;;-1.41;83.84;99534.39;1724561;83;21232;-76
2021/04/08 03:10:11;;;;;;;19.20;8.60;;;;;;;-1.42;84.02;99536.55;1711803;83;21185;-76
2021/04/08 03:12:52;;;;;;;15.03;8.03;;;;;;;-1.42;84.16;99544.30;1724733;83;21172;-79
2021/04/08 03:15:27;;;;;;;16.12;9.50;;;;;;;-1.43;84.20;99550.31;1686166;83;21371;-78
2021/04/08 03:17:55;;;;;;;18.75;8.85;;;;;;;-1.45;84.22;99553.31;1755238;81;21217;-78
2021/04/08 03:20:23;;;;;;;16.07;8.65;;;;;;;-1.49;84.25;99549.45;1730258;81;21210;-79
2021/04/08 03:22:52;;;;;;;17.23;9.30;;;;;;;-1.50;84.35;99557.17;1724686;83;21117;-79
2021/04/08 03:25:20;;;;;;;14.95;8.85;;;;;;;-1.50;84.35;99565.78;1712542;83;21196;-80
2021/04/08 03:27:48;;;;;;;18.98;8.93;;;;;;;-1.49;84.44;99567.52;1724835;83;22344;-79
2021/04/08 03:30:17;;;;;;;16.15;9.15;;;;;;;-1.50;84.03;99563.20;1729880;82;21215;-78
2021/04/08 03:32:45;;;;;;;19.32;9.80;;;;;;;-1.49;84.07;99571.39;1732698;82;21195;-82
2021/04/08 03:35:14;;;;;;;21.62;9.78;;;;;;;-1.49;83.83;99575.27;1736146;82;21142;-83
2021/04/08 03:37:43;;;;;;;16.93;8.55;;;;;;;-1.51;83.60;99576.98;1727222;83;21651;-80
2021/04/08 03:40:12;;;;;;;17.80;10.18;;;;;;;-1.48;83.94;99584.73;1737768;81;22236;-79
2021/04/08 03:42:40;;;;;;;19.20;10.08;;;;;;;-1.47;83.83;99586.91;1741391;82;21813;-78
2021/04/08 03:45:10;;;;;;;16.93;9.70;;;;;;;-1.45;83.93;99586.89;1739966;82;21262;-77
2021/04/08 03:49:01;;;;;;;19.50;10.57;;;;;;;-1.35;83.26;99593.83;1766388;79;22769;-78
2021/04/08 03:51:31;;;;;;;21.80;11.03;;;;;;;-1.37;83.29;99600.70;1718703;83;21186;-78
2021/04/08 03:53:58;;;;;;;20.80;9.90;;;;;;;-1.34;82.84;99601.99;1718985;82;21219;-76
2021/04/08 03:56:26;;;;;;;17.92;9.78;;;;;;;-1.29;83.03;99604.15;1718571;82;21210;-78
2021/04/08 03:58:54;;;;;;;18.40;9.35;;;;;;;-1.14;83.13;99607.22;1738164;82;21199;-78
2021/04/08 04:01:22;;;;;;;15.93;7.87;;;;;;;-0.77;82.23;99604.67;1718863;83;21206;-77
2021/04/08 04:03:49;;;;;;;17.82;10.18;;;;;;;-0.35;81.51;99603.78;1718130;83;21159;-78
2021/04/08 04:06:18;;;;;;;19.02;10.23;;;;;;;0.09;80.06;99604.15;1693782;83;21401;-80
2021/04/08 04:08:46;;;;;;;19.02;10.03;;;;;;;0.51;78.37;99609.17;1697400;83;21238;-77
2021/04/08 04:11:14;;;;;;;17.12;9.58;;;;;;;0.91;77.72;99612.39;1689277;84;21501;-77
2021/04/08 04:13:42;;;;;;;17.85;9.43;;;;;;;1.31;75.49;99617.33;1715201;83;21207;-78
2021/04/08 04:16:10;;;;;;;19.82;10.50;;;;;;;1.72;74.80;99617.39;1716708;83;21144;-78
2021/04/08 04:18:39;;;;;;;18.87;10.00;;;;;;;2.06;72.14;99617.06;1716694;83;21414;-76
2021/04/08 04:21:07;;;;;;;19.60;10.10;;;;;;;2.36;70.31;99622.80;1716588;83;21214;-76
2021/04/08 04:23:35;;;;;;;15.68;9.38;;;;;;;2.71;69.78;99623.23;1688388;83;21152;-77
2021/04/08 04:26:03;;;;;;;16.07;10.03;;;;;;;3.07;67.89;99623.59;1716805;83;21207;-77
2021/04/08 04:28:32;;;;;;;18.67;10.55;;;;;;;3.40;66.96;99621.34;1716654;83;21223;-76
2021/04/08 04:31:00;;;;;;;19.37;9.98;;;;;;;3.70;65.78;99624.33;1716466;83;21372;-77
2021/04/08 04:33:28;;;;;;;20.77;9.98;;;;;;;3.84;62.51;99623.64;1716621;83;21192;-80
2021/04/08 04:35:57;;;;;;;17.85;9.53;;;;;;;3.95;63.45;99623.00;1716585;83;21219;-79
2021/04/08 04:38:26;;;;;;;17.90;9.53;;;;;;;4.09;62.82;99624.50;1717013;83;21259;-79
2021/04/08 04:40:55;;;;;;;15.90;9.70;;;;;;;4.41;63.60;99631.70;1716446;82;21709;-74
2021/04/08 04:43:23;;;;;;;18.00;10.40;;;;;;;4.66;61.08;99631.22;1701852;83;21200;-74
2021/04/08 04:45:51;;;;;;;18.10;10.30;;;;;;;4.88;61.26;99632.48;1670491;82;26766;-76
2021/04/08 04:48:19;;;;;;;19.70;10.65;;;;;;;5.09;59.83;99641.59;1634668;87;21208;-76
2021/04/08 04:50:47;;;;;;;19.25;10.43;;;;;;;5.25;59.94;99644.71;1633772;87;21667;-75
2021/04/08 04:53:18;;;;;;;17.90;9.95;;;;;;;5.49;59.96;99640.65;1624122;87;21811;-78
2021/04/08 04:55:46;;;;;;;16.32;9.88;;;;;;;5.78;58.15;99636.48;1626840;86;21294;-77
2021/04/08 04:58:15;;;;;;;17.30;10.10;;;;;;;6.08;58.65;99642.23;1665913;86;21662;-77
2021/04/08 05:00:44;;;;;;;18.17;10.65;;;;;;;6.45;56.68;99645.16;1665598;86;21636;-79
2021/04/08 05:03:12;;;;;;;18.05;11.03;;;;;;;6.67;55.17;99643.23;1653822;86;21168;-78
2021/04/08 05:05:40;;;;;;;17.90;10.28;;;;;;;6.72;53.41;99646.14;1648731;84;21588;-80
2021/04/08 05:08:08;;;;;;;16.57;9.83;;;;;;;6.97;55.16;99645.43;1643836;86;22270;-79
2021/04/08 05:10:36;;;;;;;16.25;10.23;;;;;;;7.20;52.18;99655.20;1646128;86;21200;-78
2021/04/08 05:13:04;;;;;;;16.05;10.55;;;;;;;7.38;52.79;99645.04;1643594;86;21666;-79
2021/04/08 05:15:32;;;;;;;16.55;10.23;;;;;;;7.52;53.51;99650.69;1649265;86;21221;-78
2021/04/08 05:18:02;;;;;;;16.42;10.05;;;;;;;7.55;52.53;99650.16;1648018;86;21217;-77
2021/04/08 05:20:30;;;;;;;14.28;9.30;;;;;;;7.48;52.03;99647.33;1645452;86;22242;-79
2021/04/08 05:22:58;;;;;;;16.90;10.35;;;;;;;7.65;52.98;99644.16;1658638;86;21301;-79
2021/04/08 05:25:26;;;;;;;15.75;10.23;;;;;;;7.99;52.84;99642.58;1631661;86;21220;-78
2021/04/08 05:27:56;;;;;;;17.75;9.68;;;;;;;8.47;51.33;99647.50;1629304;87;21724;-78
2021/04/08 05:30:25;;;;;;;14.47;9.38;;;;;;;8.47;50.04;99652.75;1603855;88;21257;-79
2021/04/08 05:32:53;;;;;;;18.27;9.93;;;;;;;8.26;50.03;99650.84;1643800;86;21228;-79
2021/04/08 05:35:21;;;;;;;14.63;9.75;;;;;;;8.34;51.32;99653.59;1656306;86;21798;-81
2021/04/08 05:37:49;;;;;;;20.60;9.65;;;;;;;8.56;48.91;99666.86;1645191;86;21173;-79
2021/04/08 05:40:18;;;;;;;16.12;9.78;;;;;;;8.63;46.48;99665.30;1664916;86;21173;-78
2021/04/08 05:42:46;;;;;;;14.07;9.30;;;;;;;8.85;48.38;99666.23;1645267;86;21790;-79
2021/04/08 05:45:17;;;;;;;14.75;9.85;;;;;;;8.98;44.73;99662.23;1666441;86;21266;-79
2021/04/08 05:47:48;;;;;;;14.07;9.90;;;;;;;8.94;44.97;99665.87;1642861;86;21244;-79
2021/04/08 05:50:19;;;;;;;14.75;10.10;;;;;;;9.26;46.05;99665.11;1649654;86;21149;-78
2021/04/08 05:52:48;;;;;;;;;;;;;;;9.74;44.60;99667.16;1656926;86;21684;-78
2021/04/08 05:55:16;;;;;;;14.28;9.58;;;;;;;10.23;45.11;99664.63;1655349;86;20227;-77
2021/04/08 05:57:47;;;;;;;15.90;10.05;;;;;;;10.54;43.39;99667.29;1654811;86;21510;-79
2021/04/08 06:00:18;;;;;;;18.37;10.70;;;;;;;10.75;42.17;99663.31;1655209;86;21197;-80
2021/04/08 06:02:49;;;;;;;16.00;10.00;;;;;;;10.60;43.99;99659.09;1632547;86;21203;-80
2021/04/08 06:05:22;;;;;;;15.90;10.78;;;;;;;10.06;43.54;99671.09;1630711;86;21179;-79
2021/04/08 06:07:52;;;;;;;16.82;10.85;;;;;;;9.76;43.31;99674.06;1624170;86;21228;-79
2021/04/08 06:10:20;;;;;;;14.18;8.20;;;;;;;9.71;45.13;99675.16;1619468;86;21657;-79
2021/04/08 06:12:50;;;;;;;19.15;11.50;;;;;;;9.81;42.33;99681.77;1625318;87;21657;-79
2021/04/08 06:15:20;;;;;;;15.80;10.65;;;;;;;9.85;44.40;99694.73;1628576;87;21684;-79
2021/04/08 06:17:49;;;;;;;17.57;11.93;;;;;;;10.16;43.20;99698.70;1626695;87;21249;-78
2021/04/08 06:20:19;;;;;;;21.33;11.73;;;;;;;10.07;42.24;99713.09;1630272;86;21188;-79
2021/04/08 06:22:53;;;;;;;17.17;11.57;;;;;;;9.84;41.82;99708.78;1614759;86;21662;-78
2021/04/08 06:25:24;;;;;;;19.87;13.35;;;;;;;9.58;42.19;99714.25;1633408;86;21195;-80
2021/04/08 06:27:54;;;;;;;20.72;11.70;;;;;;;9.07;44.16;99708.78;1620803;87;21624;-79
2021/04/08 06:30:22;;;;;;;20.63;12.80;;;;;;;9.57;45.28;99716.03;1625270;86;21205;-79
2021/04/08 06:35:36;;;;;;;22.02;12.13;;;;;;;10.08;44.12;99715.29;1868574;74;28643;-79
2021/04/08 06:38:05;;;;;;;15.18;10.85;;;;;;;10.25;41.95;99719.37;1840766;76;21193;-79
2021/04/08 06:40:34;;;;;;;19.67;12.33;;;;;;;10.35;42.78;99713.75;1848740;76;21262;-79
2021/04/08 06:43:02;;;;;;;18.55;12.68;;;;;;;10.33;43.93;99721.73;1794016;79;21171;-81
2021/04/08 06:45:34;;;;;;;18.32;12.40;;;;;;;10.68;44.01;99714.92;1801226;78;20976;-79
2021/04/08 06:48:19;;;;;;;19.35;12.37;;;;;;;11.05;40.40;99721.19;1809641;78;21195;-79
2021/04/08 06:50:58;;;;;;;19.75;12.20;;;;;;;11.33;41.29;99718.59;1809872;76;22708;-78
2021/04/08 06:53:27;;;;;;;19.48;12.30;;;;;;;11.63;41.33;99727.30;1788596;77;21183;-79
2021/04/08 06:55:55;;;;;;;16.25;11.18;;;;;;;12.09;39.12;99719.81;1739605;80;21363;-80
2021/04/08 06:58:23;;;;;;;17.82;12.55;;;;;;;12.46;39.88;99735.13;1710733;82;21128;-80
2021/04/08 07:00:53;;;;;;;17.27;12.75;;;;;;;12.72;37.39;99731.12;1738625;81;21172;-79
2021/04/08 07:03:23;;;;;;;18.57;11.90;;;;;;;12.76;39.13;99730.04;1739324;82;21198;-78
2021/04/08 07:05:53;;;;;;;18.27;12.53;;;;;;;12.75;38.02;99733.16;1770648;80;21130;-80
2021/04/08 07:08:22;;;;;;;15.93;10.70;;;;;;;12.84;38.60;99736.23;1772735;79;21443;-79
2021/04/08 07:10:50;;;;;;;16.52;11.18;;;;;;;12.72;39.21;99733.77;1759902;80;21175;-80
2021/04/08 07:13:18;;;;;;;17.12;12.18;;;;;;;12.80;37.80;99740.37;1762397;80;21218;-78
2021/04/08 07:15:46;;;;;;;17.70;10.95;;;;;;;13.06;37.85;99736.81;1761391;80;21194;-81
2021/04/08 07:18:15;;;;;;;21.48;13.95;;;;;;;13.09;35.88;99741.95;1758966;80;21189;-78
2021/04/08 07:20:42;;;;;;;19.32;12.00;;;;;;;13.15;36.40;99741.60;1771351;80;21353;-80
2021/04/08 07:23:10;;;;;;;17.73;12.18;;;;;;;13.34;37.13;99739.31;1767128;80;21190;-78
2021/04/08 07:26:00;;;;;;;20.80;12.65;;;;;;;13.63;35.95;99741.69;1777842;80;21175;-78
2021/04/08 07:28:35;;;;;;;21.80;13.25;;;;;;;13.90;35.56;99749.87;1770040;80;21170;-78
2021/04/08 07:31:28;;;;;;;14.38;10.60;;;;;;;14.16;35.45;99743.06;1753545;80;21146;-78
2021/04/08 07:33:58;;;;;;;16.57;11.12;;;;;;;14.36;34.46;99744.56;1753460;80;22238;-79
2021/04/08 07:36:36;;;;;;;18.87;12.33;;;;;;;14.60;35.22;99746.73;1762759;80;21195;-80
2021/04/08 07:39:07;;;;;;;17.27;10.18;;;;;;;14.86;35.47;99752.65;1770552;80;21224;-79
2021/04/08 07:41:36;;;;;;;15.70;11.43;;;;;;;15.22;33.35;99752.64;1778856;80;21088;-80
2021/04/08 07:44:08;;;;;;;19.20;11.78;;;;;;;15.21;32.86;99750.95;1783268;80;21844;-81
2021/04/08 07:46:39;;;;;;;17.17;12.63;;;;;;;14.76;33.02;99760.76;1769657;80;22283;-80
2021/04/08 07:49:30;;;;;;;19.77;12.47;;;;;;;14.08;33.49;99765.63;1760528;80;21155;-79
2021/04/08 07:52:17;;;;;;;;;;;;;;;13.13;34.53;99772.55;1759617;80;21552;-76
2021/04/08 07:55:09;;;;;;;22.87;13.25;;;;;;;12.73;37.06;99774.66;1764732;80;20238;-79
2021/04/08 07:58:13;;;;;;;22.98;12.90;;;;;;;12.03;37.67;99765.86;1762971;80;21673;-78
2021/04/08 08:00:52;;;;;;;23.35;13.43;;;;;;;11.42;38.62;99793.31;1713556;83;21376;-77
2021/04/08 08:03:33;;;;;;;23.20;13.60;;;;;;;11.35;39.14;99781.34;1705196;82;21146;-74
2021/04/08 08:06:03;;;;;;;18.60;12.90;;;;;;;11.47;39.49;99791.30;1774126;80;21630;-78
2021/04/08 08:08:41;;;;;;;23.50;13.78;;;;;;;11.80;40.13;99797.28;1779500;80;21169;-78
2021/04/08 08:11:16;;;;;;;25.12;12.85;;;;;;;12.18;39.41;99799.41;1752747;81;21174;-80
2021/04/08 08:13:56;;;;;;;21.65;12.33;;;;;;;11.81;40.71;99795.02;1719287;83;21355;-76
2021/04/08 08:16:27;;;;;;;20.35;13.03;;;;;;;11.65;39.71;99801.95;1711223;82;21190;-77
2021/04/08 08:18:57;;;;;;;18.55;12.63;;;;;;;11.11;39.62;99801.73;1783415;80;21480;-77
2021/04/08 08:21:37;;;;;;;18.27;13.60;;;;;;;10.87;41.09;99814.22;1783535;80;21127;-77
2021/04/08 08:24:12;;;;;;;22.60;15.20;;;;;;;10.30;42.26;99817.91;1746699;80;21158;-77
2021/04/08 08:26:49;;;;;;;24.18;15.15;;;;;;;9.78;43.16;99810.77;1767883;80;21362;-77
2021/04/08 08:29:22;;;;;;;20.82;13.88;;;;;;;9.84;42.99;99807.41;1765123;80;21222;-78
2021/04/08 08:31:58;;;;;;;21.23;14.03;;;;;;;10.16;43.71;99817.12;1753210;80;21146;-77
2021/04/08 08:34:34;;;;;;;20.08;13.30;;;;;;;10.45;44.05;99817.75;1767206;80;21155;-78
2021/04/08 08:37:07;;;;;;;18.90;12.98;;;;;;;10.76;41.61;99824.35;1773872;80;21593;-78
2021/04/08 08:39:40;;;;;;;24.87;14.00;;;;;;;10.75;41.15;99823.97;1757036;80;21195;-77
2021/04/08 08:42:09;;;;;;;22.90;14.05;;;;;;;10.87;40.92;99827.39;1696394;83;21567;-78
2021/04/08 08:44:38;;;;;;;19.73;14.30;;;;;;;10.22;42.55;99830.50;1703989;82;21745;-77
2021/04/08 08:47:24;;;;;;;22.20;14.50;;;;;;;9.62;42.46;99838.10;1757625;80;21151;-77
2021/04/08 08:50:07;;;;;;;21.93;13.60;;;;;;;9.69;42.35;99826.89;1718362;81;21138;-78
2021/04/08 08:52:37;;;;;;;28.65;17.15;;;;;;;9.80;41.53;99841.34;1786302;80;21399;-77
2021/04/08 08:55:14;;;;;;;24.92;16.45;;;;;;;9.90;42.72;99834.41;1756749;80;21221;-78
2021/04/08 08:57:50;;;;;;;18.00;12.53;;;;;;;9.78;42.29;99843.17;1724135;82;21625;-77
2021/04/08 09:00:21;;;;;;;19.60;13.18;;;;;;;9.69;41.05;99840.89;1755787;81;21167;-78
2021/04/08 09:02:51;;;;;;;27.00;14.45;;;;;;;9.77;42.44;99841.44;1756063;81;21206;-78
2021/04/08 09:05:21;;;;;;;20.27;12.58;;;;;;;10.18;41.53;99837.66;1756358;80;22291;-77
2021/04/08 09:07:51;;;;;;;41.95;14.23;;;;;;;10.63;40.60;99832.78;1757880;80;21170;-78
2021/04/08 09:10:34;;;;;;;21.30;12.20;;;;;;;11.01;39.85;99842.13;1783223;80;21170;-80
2021/04/08 09:13:05;;;;;;;36.08;13.48;;;;;;;10.93;40.83;99845.58;1773190;80;21637;-77
2021/04/08 09:15:36;;;;;;;;;;;;;;;10.05;40.71;99839.94;1721979;82;21584;-78
2021/04/08 09:18:07;;;;;;;20.97;13.90;;;;;;;9.54;41.86;99854.14;1777834;79;22119;-78
2021/04/08 09:20:36;;;;;;;25.13;14.10;;;;;;;9.79;41.30;99855.39;1781971;79;21223;-78
2021/04/08 09:23:12;;;;;;;22.70;13.98;;;;;;;10.29;41.33;99855.22;1763370;79;21234;-78
2021/04/08 09:25:54;;;;;;;24.87;12.68;;;;;;;10.52;40.90;99852.12;1772397;80;21527;-78
2021/04/08 09:28:30;;;;;;;23.65;11.83;;;;;;;10.73;41.99;99856.10;1763702;80;21182;-77
2021/04/08 09:33:49;;;;;;;26.75;13.65;;;;;;;10.52;38.97;99855.22;1768713;80;21598;-77
2021/04/08 09:36:27;;;;;;;18.95;11.85;;;;;;;9.88;40.88;99851.09;1781763;80;21695;-79
2021/04/08 09:39:04;;;;;;;16.95;10.50;;;;;;;10.16;39.90;99847.38;1773831;80;21131;-79
2021/04/08 09:44:35;;;;;;;15.65;10.93;;;;;;;11.16;37.00;99859.07;1868589;76;28271;-79
2021/04/08 09:47:04;;;;;;;21.33;12.05;;;;;;;11.22;38.38;99857.93;1832873;77;21242;-81
2021/04/08 09:49:41;;;;;;;17.00;11.57;;;;;;;11.57;36.90;99852.86;1831834;77;21148;-80
2021/04/08 09:52:10;;;;;;;14.25;10.15;;;;;;;11.67;35.06;99850.21;1840454;77;21220;-78
2021/04/08 09:54:57;;;;;;;23.50;9.70;;;;;;;11.44;34.75;99852.11;1827521;77;21155;-80
2021/04/08 09:57:40;;;;;;;13.70;8.60;;;;;;;11.46;34.26;99852.89;1812117;77;21170;-78
2021/04/08 10:00:16;;;;;;;13.70;8.70;;;;;;;11.15;34.64;99857.34;1754695;81;21202;-79
2021/04/08 10:03:06;;;;;;;14.63;8.23;;;;;;;11.32;33.62;99852.66;1778071;80;22309;-79
2021/04/08 10:05:38;;;;;;;12.18;7.67;;;;;;;11.46;33.29;99856.85;1781818;79;21023;-77
2021/04/08 10:08:08;;;;;;;12.33;8.73;;;;;;;11.61;33.17;99843.89;1756917;81;21190;-77
2021/04/08 10:10:42;;;;;;;15.43;8.48;;;;;;;11.49;34.80;99850.11;1788072;79;21772;-77
2021/04/08 10:13:28;;;;;;;12.60;7.65;;;;;;;10.97;34.08;99849.77;1757196;81;21708;-75
2021/04/08 10:15:59;;;;;;;10.98;7.15;;;;;;;10.57;34.53;99863.78;1788500;80;21606;-76
2021/04/08 10:18:30;;;;;;;;;;;;;;;10.82;34.90;99858.34;1746107;82;21187;-76
2021/04/08 10:21:04;;;;;;;15.08;8.35;;;;;;;11.35;34.21;99852.52;1769985;81;20283;-76
2021/04/08 10:23:39;;;;;;;11.33;8.08;;;;;;;11.29;33.61;99847.51;1761158;81;21182;-80
2021/04/08 10:26:11;;;;;;;20.08;7.85;;;;;;;10.66;35.96;99852.86;1761395;80;21142;-76
2021/04/08 10:28:43;;;;;;;11.08;7.33;;;;;;;10.28;40.37;99861.42;1767183;80;22219;-79
2021/04/08 10:31:18;;;;;;;14.13;7.50;;;;;;;9.87;37.00;99869.12;1780106;80;21169;-78
2021/04/08 10:33:47;;;;;;;12.65;6.67;;;;;;;9.50;38.07;99868.77;1765471;80;21187;-77
2021/04/08 10:36:43;;;;;;;17.85;8.10;;;;;;;9.39;39.59;99873.97;1762219;80;21200;-79
2021/04/08 10:39:17;;;;;;;11.65;7.15;;;;;;;9.52;37.94;99865.16;1762510;80;21725;-79
2021/04/08 10:42:10;;;;;;;14.63;6.08;;;;;;;9.78;34.62;99863.36;1754688;80;21170;-74
2021/04/08 10:44:45;;;;;;;11.90;7.15;;;;;;;10.23;33.69;99861.16;1767560;80;21210;-77
2021/04/08 10:47:23;;;;;;;13.48;6.10;;;;;;;10.70;36.91;99859.25;1766160;80;21162;-75
2021/04/08 10:50:00;;;;;;;11.05;6.67;;;;;;;10.63;34.92;99867.02;1769381;80;21651;-76
2021/04/08 10:52:37;;;;;;;12.45;6.03;;;;;;;10.09;34.30;99872.22;1764311;80;21208;-78
2021/04/08 10:55:10;;;;;;;11.30;6.50;;;;;;;10.04;35.40;99876.81;1762222;80;21405;-77
2021/04/08 10:57:38;;;;;;;10.80;5.95;;;;;;;10.34;33.24;99868.20;1757311;80;21237;-78
2021/04/08 11:00:07;;;;;;;10.58;5.67;;;;;;;10.36;33.06;99872.09;1764067;80;21242;-79
2021/04/08 11:02:41;;;;;;;12.63;6.00;;;;;;;10.44;32.70;99873.94;1773785;80;21166;-78
2021/04/08 11:05:26;;;;;;;12.63;5.50;;;;;;;10.56;32.55;99873.46;1768747;80;21603;-77
2021/04/08 11:07:57;;;;;;;8.83;6.12;;;;;;;10.46;32.65;99868.16;1772248;80;21378;-78
2021/04/08 11:10:27;;;;;;;8.98;5.60;;;;;;;10.26;32.79;99873.75;1776676;80;28698;-83
2021/04/08 11:12:58;;;;;;;11.60;5.53;;;;;;;10.12;30.88;99862.88;1765394;80;21189;-73
2021/04/08 11:15:31;;;;;;;14.40;5.65;;;;;;;10.01;32.23;99861.16;1777055;80;21170;-75
2021/04/08 11:18:08;;;;;;;10.40;5.62;;;;;;;10.30;32.94;99869.23;1757521;80;21662;-75
2021/04/08 11:20:45;;;;;;;9.30;5.08;;;;;;;10.34;32.77;99864.72;1872549;76;28222;-74
2021/04/08 11:23:19;;;;;;;9.50;5.57;;;;;;;10.42;32.24;99873.14;1833867;77;21163;-76
2021/04/08 11:26:07;;;;;;;7.70;5.00;;;;;;;10.66;31.55;99885.31;1818806;77;21192;-76
2021/04/08 11:28:41;;;;;;;9.03;5.92;;;;;;;10.90;31.08;99879.94;1821373;78;21613;-75
2021/04/08 11:31:40;;;;;;;9.60;5.20;;;;;;;10.68;30.74;99887.89;1764221;79;21238;-75
2021/04/08 11:34:08;;;;;;;8.60;4.83;;;;;;;10.21;30.90;99898.05;1655807;85;21282;-76
2021/04/08 11:36:36;;;;;;;14.20;5.72;;;;;;;9.78;32.73;99900.18;1664403;85;21187;-75
2021/04/08 11:39:11;;;;;;;9.25;5.85;;;;;;;9.55;37.90;99929.95;1657634;85;21846;-75
2021/04/08 11:41:39;;;;;;;10.03;6.78;;;;;;;9.15;42.76;99952.34;1651965;85;21246;-75
2021/04/08 11:44:07;;;;;;;8.90;5.92;;;;;;;8.44;47.70;99942.81;1653829;85;21191;-74
2021/04/08 11:46:35;;;;;;;10.98;7.22;;;;;;;7.71;50.96;99965.05;1600972;87;21250;-75
2021/04/08 11:49:19;;;;;;;12.63;7.92;;;;;;;7.15;55.22;99983.13;1655492;85;21214;-75
2021/04/08 11:51:48;;;;;;;14.25;8.60;;;;;;;6.68;56.57;99977.30;1668712;84;22278;-75
2021/04/08 11:54:17;;;;;;;11.57;7.55;;;;;;;6.29;58.59;99977.31;1657761;85;21209;-74
2021/04/08 11:56:47;;;;;;;14.28;8.28;;;;;;;6.15;60.47;99972.84;1654482;85;21222;-74
2021/04/08 11:59:22;;;;;;;13.50;7.28;;;;;;;6.06;60.47;99966.89;1617492;88;21241;-74